createdAt,value
2023-01-05T00:01:06.035Z,98.12
2023-01-05T00:03:33.194Z,98.00
2023-01-05T00:06:05.221Z,97.32
2023-01-05T00:08:36.975Z,96.42
2023-01-05T00:11:55.433Z,97.35
2023-01-05T00:14:46.255Z,95.30
2023-01-05T00:17:35.949Z,94.29
2023-01-05T00:20:22.499Z,93.55
2023-01-05T00:22:51.320Z,91.33
2023-01-05T00:25:26.313Z,91.06
2023-01-05T00:27:53.848Z,90.29
2023-01-05T00:30:23.804Z,90.13
2023-01-05T00:32:51.220Z,90.44
2023-01-05T00:35:17.931Z,89.50
2023-01-05T00:37:45.492Z,88.71
2023-01-05T00:40:14.839Z,89.46
2023-01-05T00:42:42.026Z,90.47
2023-01-05T00:45:11.674Z,88.73
2023-01-05T00:47:38.288Z,89.14
2023-01-05T00:50:05.549Z,89.68
2023-01-05T00:52:32.022Z,90.21
2023-01-05T00:54:58.451Z,89.17
2023-01-05T00:57:24.856Z,90.91
2023-01-05T00:59:51.314Z,89.54
2023-01-05T01:02:17.927Z,89.75
2023-01-05T01:04:44.547Z,89.92
2023-01-05T01:07:11.010Z,91.01
2023-01-05T01:09:37.566Z,90.81
2023-01-05T01:12:04.255Z,90.18
2023-01-05T01:14:30.708Z,90.29
2023-01-05T01:16:57.377Z,90.87
2023-01-05T01:19:25.890Z,89.36
2023-01-05T01:21:53.064Z,88.89
2023-01-05T01:24:25.933Z,89.81
2023-01-05T01:26:52.775Z,89.00
2023-01-05T01:29:19.458Z,89.41
2023-01-05T01:31:50.147Z,90.34
2023-01-05T01:34:16.777Z,89.57
2023-01-05T01:36:43.742Z,88.88
2023-01-05T01:39:11.406Z,89.56
2023-01-05T01:41:38.367Z,90.36
2023-01-05T01:44:45.365Z,90.81
2023-01-05T01:47:17.152Z,89.07
2023-01-05T01:49:44.247Z,90.39
2023-01-05T01:52:10.716Z,90.53
2023-01-05T01:54:37.258Z,89.44
2023-01-05T01:57:04.807Z,89.85
2023-01-05T01:59:31.637Z,90.46
2023-01-05T02:02:00.687Z,89.56
2023-01-05T02:04:29.889Z,87.68
2023-01-05T02:06:56.647Z,87.94
2023-01-05T02:09:23.088Z,87.49
2023-01-05T02:11:58.513Z,87.55
2023-01-05T02:14:47.899Z,86.96
2023-01-05T02:17:23.446Z,87.50
2023-01-05T02:20:29.016Z,87.48
2023-01-05T02:22:55.411Z,86.62
2023-01-05T02:25:51.954Z,87.29
2023-01-05T02:29:03.129Z,86.96
2023-01-05T02:32:05.492Z,86.73
2023-01-05T02:34:46.479Z,87.36
2023-01-05T02:37:18.851Z,87.41
2023-01-05T02:39:56.584Z,86.91
2023-01-05T02:42:25.475Z,87.04
2023-01-05T02:44:52.227Z,85.93
2023-01-05T02:47:24.634Z,84.96
2023-01-05T02:49:55.753Z,85.62
2023-01-05T02:52:22.897Z,85.80
2023-01-05T02:54:57.561Z,85.88
2023-01-05T02:57:46.946Z,85.74
2023-01-05T03:00:41.754Z,86.62
2023-01-05T03:03:20.286Z,86.25
2023-01-05T03:06:03.017Z,86.33
2023-01-05T03:08:33.330Z,87.45
2023-01-05T03:11:25.691Z,88.80
2023-01-05T03:14:03.399Z,88.56
2023-01-05T03:16:34.693Z,87.22
2023-01-05T03:19:22.323Z,86.59
2023-01-05T03:22:09.748Z,85.80
2023-01-05T03:24:56.612Z,84.72
2023-01-05T03:27:42.893Z,85.59
2023-01-05T03:30:28.913Z,84.96
2023-01-05T03:33:26.183Z,84.58
2023-01-05T03:35:57.559Z,84.66
2023-01-05T03:38:30.203Z,86.07
2023-01-05T03:40:59.705Z,87.46
2023-01-05T03:43:26.748Z,89.50
2023-01-05T03:45:55.897Z,90.97
2023-01-05T03:48:24.138Z,90.55
2023-01-05T03:50:50.717Z,91.83
2023-01-05T03:53:17.330Z,91.84
2023-01-05T03:55:43.713Z,92.62
2023-01-05T03:58:10.278Z,93.60
2023-01-05T04:00:36.878Z,95.08
2023-01-05T04:03:03.811Z,94.42
2023-01-05T04:05:30.351Z,95.54
2023-01-05T04:08:00.044Z,95.11
2023-01-05T04:10:26.522Z,95.86
2023-01-05T04:12:52.908Z,96.42
2023-01-05T04:15:19.381Z,96.84
2023-01-05T04:17:45.803Z,97.95
2023-01-05T04:20:12.480Z,97.86
2023-01-05T04:22:38.961Z,97.80
2023-01-05T04:25:05.821Z,97.56
2023-01-05T04:27:32.241Z,96.37
2023-01-05T04:29:58.654Z,96.55
2023-01-05T04:32:25.132Z,96.45
2023-01-05T04:34:51.485Z,95.85
2023-01-05T04:37:18.007Z,96.72
2023-01-05T04:39:44.432Z,97.85
2023-01-05T04:42:10.878Z,98.19
2023-01-05T04:44:37.599Z,99.14
2023-01-05T04:47:04.035Z,99.01
2023-01-05T04:49:30.419Z,98.55
2023-01-05T04:51:56.791Z,98.70
2023-01-05T04:54:23.336Z,97.48
2023-01-05T04:56:49.790Z,98.07
2023-01-05T04:59:16.248Z,99.01
2023-01-05T05:01:42.864Z,99.17
2023-01-05T05:04:09.463Z,98.78
2023-01-05T05:06:35.885Z,99.82
2023-01-05T05:09:02.297Z,100.00
2023-01-05T05:11:28.723Z,100.00
2023-01-05T05:13:55.094Z,100.00
2023-01-05T05:16:21.557Z,100.00
2023-01-05T05:18:47.973Z,100.00
2023-01-05T05:21:14.463Z,100.00
2023-01-05T05:23:41.095Z,100.00
2023-01-05T05:26:07.550Z,100.00
2023-01-05T05:28:34.127Z,100.00
2023-01-05T05:31:01.007Z,100.00
2023-01-05T05:33:27.654Z,100.00
2023-01-05T05:35:54.086Z,100.00
2023-01-05T05:38:20.551Z,100.00
2023-01-05T05:40:49.516Z,100.00
2023-01-05T05:43:15.987Z,100.00
2023-01-05T05:45:49.688Z,100.00
2023-01-05T05:48:17.016Z,100.00
2023-01-05T05:50:44.639Z,100.00
2023-01-05T05:53:11.050Z,100.00
2023-01-05T05:55:37.495Z,100.00
2023-01-05T05:58:03.972Z,100.00
2023-01-05T06:00:30.372Z,100.00
2023-01-05T06:02:56.885Z,100.00
2023-01-05T06:05:23.414Z,97.77
2023-01-05T06:07:49.839Z,97.50
2023-01-05T06:10:16.225Z,97.97
2023-01-05T06:12:42.852Z,97.61
2023-01-05T06:15:10.023Z,98.28
2023-01-05T06:17:36.409Z,98.84
2023-01-05T06:20:02.917Z,99.15
2023-01-05T06:22:29.322Z,97.79
2023-01-05T06:24:55.805Z,97.63
2023-01-05T06:27:22.289Z,98.11
2023-01-05T06:29:49.428Z,98.38
2023-01-05T06:32:15.824Z,98.54
2023-01-05T06:34:42.254Z,98.52
2023-01-05T06:37:08.648Z,99.05
2023-01-05T06:39:35.024Z,99.97
2023-01-05T06:42:01.425Z,99.93
2023-01-05T06:44:27.869Z,99.70
2023-01-05T06:46:54.281Z,99.51
2023-01-05T06:49:20.680Z,97.95
2023-01-05T06:51:47.144Z,97.70
2023-01-05T06:54:13.758Z,97.09
2023-01-05T06:56:40.235Z,96.59
2023-01-05T06:59:06.749Z,95.93
2023-01-05T07:01:33.246Z,96.40
2023-01-05T07:03:59.753Z,96.56
2023-01-05T07:06:26.142Z,95.08
2023-01-05T07:08:52.538Z,93.91
2023-01-05T07:11:19.071Z,92.48
2023-01-05T07:13:50.531Z,91.39
2023-01-05T07:16:17.820Z,90.38
2023-01-05T07:18:44.556Z,88.04
2023-01-05T07:21:11.257Z,89.39
2023-01-05T07:23:37.910Z,90.66
2023-01-05T07:26:06.231Z,89.79
2023-01-05T07:28:32.786Z,90.04
2023-01-05T07:30:59.207Z,90.46
2023-01-05T07:33:25.654Z,89.54
2023-01-05T07:35:52.118Z,88.48
2023-01-05T07:38:18.546Z,88.87
2023-01-05T07:40:45.043Z,87.99
2023-01-05T07:43:11.444Z,89.12
2023-01-05T07:45:37.954Z,89.02
2023-01-05T07:48:04.507Z,87.94
2023-01-05T07:50:32.119Z,87.70
2023-01-05T07:52:59.571Z,88.04
2023-01-05T07:55:26.195Z,86.79
2023-01-05T07:57:52.575Z,86.76
2023-01-05T08:00:19.266Z,87.02
2023-01-05T08:02:46.166Z,86.26
2023-01-05T08:05:12.660Z,85.78
2023-01-05T08:07:39.216Z,85.93
2023-01-05T08:10:24.884Z,85.82
2023-01-05T08:13:09.974Z,84.78
2023-01-05T08:15:36.390Z,83.99
2023-01-05T08:18:02.780Z,83.05
2023-01-05T08:20:29.259Z,82.94
2023-01-05T08:22:55.658Z,83.06
2023-01-05T08:25:22.203Z,82.18
2023-01-05T08:27:48.686Z,83.00
2023-01-05T08:30:15.422Z,81.97
2023-01-05T08:32:43.657Z,82.90
2023-01-05T08:35:10.620Z,81.28
2023-01-05T08:37:37.039Z,81.70
2023-01-05T08:40:03.739Z,81.73
2023-01-05T08:42:30.110Z,81.89
2023-01-05T08:44:56.516Z,81.78
2023-01-05T08:47:28.053Z,80.79
2023-01-05T08:49:55.008Z,81.49
2023-01-05T08:52:23.157Z,81.11
2023-01-05T08:54:49.983Z,81.32
2023-01-05T08:57:16.488Z,79.93
2023-01-05T08:59:42.864Z,78.94
2023-01-05T09:02:12.700Z,79.09
2023-01-05T09:04:39.268Z,80.07
2023-01-05T09:07:05.678Z,78.46
2023-01-05T09:09:32.141Z,76.64
2023-01-05T09:11:58.620Z,78.75
2023-01-05T09:14:25.090Z,74.80
2023-01-05T09:17:08.011Z,73.27
2023-01-05T09:19:37.985Z,70.38
2023-01-05T09:22:04.914Z,71.57
2023-01-05T09:24:36.151Z,74.04
2023-01-05T09:27:04.023Z,73.98
2023-01-05T09:29:30.453Z,74.72
2023-01-05T09:31:58.213Z,74.44
2023-01-05T09:34:25.130Z,74.52
2023-01-05T09:36:51.670Z,75.15
2023-01-05T09:39:18.109Z,74.74
2023-01-05T09:41:54.145Z,73.34
2023-01-05T09:44:39.502Z,72.52
2023-01-05T09:47:26.232Z,72.57
2023-01-05T09:49:54.288Z,72.02
2023-01-05T09:52:25.160Z,71.61
2023-01-05T09:54:51.713Z,71.97
2023-01-05T09:57:25.393Z,72.73
2023-01-05T09:59:56.630Z,71.87
2023-01-05T10:02:44.332Z,71.86
2023-01-05T10:05:13.931Z,71.56
2023-01-05T10:07:46.237Z,71.47
2023-01-05T10:10:44.972Z,70.60
2023-01-05T10:13:33.307Z,71.18
2023-01-05T10:16:03.536Z,70.55
2023-01-05T10:18:38.772Z,70.21
2023-01-05T10:21:05.692Z,69.93
2023-01-05T10:23:56.260Z,70.63
2023-01-05T10:26:24.707Z,69.98
2023-01-05T10:29:15.624Z,69.92
2023-01-05T10:31:49.822Z,70.03
2023-01-05T10:34:34.563Z,69.10
2023-01-05T10:37:17.080Z,68.75
2023-01-05T10:40:03.975Z,68.31
2023-01-05T10:42:40.893Z,69.32
2023-01-05T10:45:11.871Z,68.42
2023-01-05T10:47:39.763Z,68.35
2023-01-05T10:50:37.234Z,68.06
2023-01-05T10:53:26.012Z,67.16
2023-01-05T10:56:06.051Z,67.57
2023-01-05T10:58:40.807Z,67.92
2023-01-05T11:01:27.182Z,67.63
2023-01-05T11:06:48.613Z,67.57
2023-01-05T11:09:26.617Z,67.86
2023-01-05T11:11:55.047Z,68.17
2023-01-05T11:14:22.085Z,67.90
2023-01-05T11:16:53.444Z,67.70
2023-01-05T11:19:31.835Z,67.71
2023-01-05T11:22:02.155Z,68.43
2023-01-05T11:24:35.815Z,67.99
2023-01-05T11:27:24.344Z,68.03
2023-01-05T11:30:15.526Z,68.49
2023-01-05T11:32:46.633Z,68.63
2023-01-05T11:35:38.052Z,67.92
2023-01-05T11:38:05.775Z,68.17
2023-01-05T11:40:35.838Z,68.59
2023-01-05T11:43:11.628Z,68.47
2023-01-05T11:45:46.282Z,68.20
2023-01-05T11:48:19.575Z,67.53
2023-01-05T11:50:49.128Z,67.46
2023-01-05T11:53:32.692Z,67.73
2023-01-05T11:56:03.278Z,67.42
2023-01-05T11:58:33.801Z,67.25
2023-01-05T12:01:20.481Z,66.79
2023-01-05T12:04:01.362Z,67.03
2023-01-05T12:06:56.310Z,67.21
2023-01-05T12:09:36.305Z,66.65
2023-01-05T12:12:10.400Z,67.25
2023-01-05T12:14:58.445Z,67.55
2023-01-05T12:17:34.371Z,67.46
2023-01-05T12:20:13.322Z,67.55
2023-01-05T12:22:57.884Z,67.59
2023-01-05T12:25:44.699Z,67.41
2023-01-05T12:28:40.418Z,67.71
2023-01-05T12:34:44.778Z,67.07
2023-01-05T12:37:39.072Z,67.33
2023-01-05T12:40:11.586Z,67.21
2023-01-05T12:42:37.965Z,67.75
2023-01-05T12:45:28.057Z,67.15
2023-01-05T12:48:08.402Z,68.29
2023-01-05T12:50:43.426Z,67.75
2023-01-05T12:53:27.579Z,66.77
2023-01-05T12:55:58.286Z,66.81
2023-01-05T12:58:35.286Z,66.75
2023-01-05T13:01:06.241Z,66.38
2023-01-05T13:03:45.279Z,66.32
2023-01-05T13:06:17.879Z,65.89
2023-01-05T13:08:55.968Z,66.04
2023-01-05T13:11:26.789Z,65.88
2023-01-05T13:14:03.289Z,65.76
2023-01-05T13:16:37.774Z,65.87
2023-01-05T13:19:24.332Z,66.19
2023-01-05T13:21:52.712Z,66.43
2023-01-05T13:24:28.071Z,66.30
2023-01-05T13:26:56.649Z,66.07
2023-01-05T13:29:26.300Z,66.22
2023-01-05T13:32:25.039Z,65.45
2023-01-05T13:34:57.190Z,65.20
2023-01-05T13:37:29.751Z,65.08
2023-01-05T13:40:47.546Z,65.08
2023-01-05T13:43:38.970Z,64.42
2023-01-05T13:46:27.639Z,64.04
2023-01-05T13:49:12.375Z,64.77
2023-01-05T13:51:54.541Z,64.54
2023-01-05T13:55:01.941Z,65.05
2023-01-05T13:57:36.511Z,65.47
2023-01-05T14:00:19.129Z,65.48
2023-01-05T14:02:59.462Z,65.98
2023-01-05T14:05:33.086Z,66.25
2023-01-05T14:08:06.400Z,66.07
2023-01-05T14:10:34.089Z,65.57
2023-01-05T14:13:01.054Z,66.03
2023-01-05T14:15:47.014Z,66.03
2023-01-05T14:18:49.826Z,66.35
2023-01-05T14:21:51.558Z,66.21
2023-01-05T14:24:33.173Z,66.83
2023-01-05T14:27:17.201Z,67.19
2023-01-05T14:29:59.892Z,67.40
2023-01-05T14:32:41.474Z,67.87
2023-01-05T14:35:37.373Z,68.06
2023-01-05T14:38:15.767Z,68.32
2023-01-05T14:40:45.597Z,68.33
2023-01-05T14:43:27.235Z,68.69
2023-01-05T14:46:10.464Z,68.30
2023-01-05T14:48:44.354Z,68.79
2023-01-05T14:51:19.915Z,68.85
2023-01-05T14:53:49.273Z,68.46
2023-01-05T14:56:27.612Z,68.76
2023-01-05T14:59:15.671Z,68.73
2023-01-05T15:01:59.465Z,68.75
2023-01-05T15:04:30.516Z,68.63
2023-01-05T15:07:26.371Z,68.81
2023-01-05T15:10:17.303Z,68.62
2023-01-05T15:12:54.911Z,68.43
2023-01-05T15:15:38.577Z,68.88
2023-01-05T15:18:19.569Z,68.52
2023-01-05T15:21:11.476Z,68.72
2023-01-05T15:24:13.173Z,68.32
2023-01-05T15:27:01.550Z,68.44
2023-01-05T15:29:40.845Z,68.53
2023-01-05T15:32:16.082Z,68.47
2023-01-05T15:34:59.687Z,68.47
2023-01-05T15:37:37.864Z,68.31
2023-01-05T15:40:27.145Z,68.56
2023-01-05T15:42:57.493Z,68.50
2023-01-05T15:45:28.268Z,68.75
2023-01-05T15:47:57.746Z,68.73
2023-01-05T15:50:34.177Z,68.72
2023-01-05T15:53:01.965Z,68.98
2023-01-05T15:55:30.258Z,69.08
2023-01-05T15:58:03.364Z,69.39
2023-01-05T16:00:33.939Z,69.23
2023-01-05T16:03:01.425Z,69.33
2023-01-05T16:05:32.774Z,69.15
2023-01-05T16:08:03.399Z,69.49
2023-01-05T16:10:37.678Z,69.10
2023-01-05T16:13:10.254Z,69.28
2023-01-05T16:15:38.213Z,69.71
2023-01-05T16:18:07.829Z,69.64
2023-01-05T16:20:37.846Z,69.53
2023-01-05T16:23:12.094Z,69.80
2023-01-05T16:25:42.550Z,69.50
2023-01-05T16:28:17.267Z,69.49
2023-01-05T16:30:45.420Z,69.78
2023-01-05T16:33:12.086Z,69.71
2023-01-05T16:35:38.558Z,69.52
2023-01-05T16:38:08.061Z,69.64
2023-01-05T16:40:36.040Z,69.63
2023-01-05T16:43:02.845Z,69.56
2023-01-05T16:45:33.030Z,69.86
2023-01-05T16:47:59.954Z,69.90
2023-01-05T16:50:29.453Z,69.97
2023-01-05T16:52:55.982Z,70.25
2023-01-05T16:55:35.519Z,69.99
2023-01-05T16:58:04.942Z,69.97
2023-01-05T17:00:36.984Z,70.05
2023-01-05T17:03:23.414Z,70.26
2023-01-05T17:05:54.778Z,70.48
2023-01-05T17:08:24.519Z,70.45
2023-01-05T17:10:51.495Z,70.75
2023-01-05T17:13:21.254Z,70.90
2023-01-05T17:15:50.712Z,70.90
2023-01-05T17:18:18.554Z,71.06
2023-01-05T17:20:46.019Z,70.75
2023-01-05T17:23:18.536Z,70.74
2023-01-05T17:25:45.061Z,71.00
2023-01-05T17:30:37.989Z,70.50
2023-01-05T17:33:05.967Z,70.24
2023-01-05T17:35:32.488Z,70.39
2023-01-05T17:37:58.927Z,70.35
2023-01-05T17:40:25.427Z,70.21
2023-01-05T17:42:51.961Z,70.50
2023-01-05T17:45:23.755Z,70.02
2023-01-05T17:47:51.107Z,70.09
2023-01-05T17:50:23.635Z,70.18
2023-01-05T17:52:50.172Z,70.02
2023-01-05T17:55:16.622Z,70.73
2023-01-05T17:57:43.116Z,70.12
2023-01-05T18:00:12.146Z,70.39
2023-01-05T18:02:39.199Z,70.61
2023-01-05T18:05:06.458Z,71.04
2023-01-05T18:07:33.434Z,71.04
2023-01-05T18:10:00.312Z,70.82
2023-01-05T18:12:27.898Z,71.12
2023-01-05T18:14:54.888Z,70.75
2023-01-05T18:17:22.143Z,70.92
2023-01-05T18:19:48.904Z,71.14
2023-01-05T18:22:15.513Z,71.57
2023-01-05T18:24:42.778Z,71.25
2023-01-05T18:27:10.405Z,71.29
2023-01-05T18:29:38.177Z,71.41
2023-01-05T18:32:05.786Z,71.41
2023-01-05T18:34:33.080Z,71.78
2023-01-05T18:37:06.084Z,71.98
2023-01-05T18:39:37.138Z,72.20
2023-01-05T18:42:03.927Z,72.15
2023-01-05T18:44:31.028Z,71.71
2023-01-05T18:46:57.434Z,72.10
2023-01-05T18:49:25.850Z,71.30
2023-01-05T18:51:53.057Z,70.71
2023-01-05T18:54:25.655Z,71.32
2023-01-05T18:56:52.922Z,70.83
2023-01-05T18:59:19.709Z,70.74
2023-01-05T19:01:46.505Z,70.83
2023-01-05T19:04:15.674Z,70.81
2023-01-05T19:06:43.757Z,70.40
2023-01-05T19:09:12.140Z,72.21
2023-01-05T19:11:43.076Z,70.08
2023-01-05T19:14:12.112Z,70.14
2023-01-05T19:16:38.656Z,69.35
2023-01-05T19:19:09.248Z,69.38
2023-01-05T19:21:39.132Z,68.21
2023-01-05T19:24:07.702Z,69.09
2023-01-05T19:26:36.090Z,68.55
2023-01-05T19:29:06.203Z,68.85
2023-01-05T19:31:33.295Z,69.21
2023-01-05T19:34:00.054Z,68.79
2023-01-05T19:36:35.346Z,68.48
2023-01-05T19:39:14.045Z,69.08
2023-01-05T19:41:45.694Z,69.55
2023-01-05T19:44:16.307Z,69.12
2023-01-05T19:46:43.889Z,69.58
2023-01-05T19:49:17.315Z,69.40
2023-01-05T19:51:45.646Z,69.18
2023-01-05T19:54:13.743Z,69.10
2023-01-05T19:56:41.954Z,68.57
2023-01-05T19:59:17.696Z,68.88
2023-01-05T20:01:46.489Z,69.04
2023-01-05T20:04:14.578Z,68.48
2023-01-05T20:06:44.188Z,68.48
2023-01-05T20:09:13.810Z,68.11
2023-01-05T20:11:47.883Z,68.23
2023-01-05T20:14:23.185Z,68.45
2023-01-05T20:16:59.739Z,68.33
2023-01-05T20:19:28.879Z,68.85
2023-01-05T20:21:57.231Z,68.87
2023-01-05T20:24:26.039Z,69.07
2023-01-05T20:27:05.101Z,69.02
2023-01-05T20:29:32.477Z,69.66
2023-01-05T20:32:06.870Z,70.32
2023-01-05T20:34:36.361Z,69.47
2023-01-05T20:37:05.659Z,69.90
2023-01-05T20:39:32.294Z,69.71
2023-01-05T20:42:04.672Z,69.38
2023-01-05T20:44:40.955Z,69.50
2023-01-05T20:47:09.159Z,70.02
2023-01-05T20:49:37.690Z,69.91
2023-01-05T20:52:05.927Z,70.39
2023-01-05T20:54:32.462Z,69.55
2023-01-05T20:56:59.122Z,69.25
2023-01-05T20:59:29.300Z,69.21
2023-01-05T21:01:57.183Z,69.55
2023-01-05T21:04:25.178Z,69.08
2023-01-05T21:06:54.267Z,69.04
2023-01-05T21:09:22.365Z,69.37
2023-01-05T21:11:48.869Z,69.22
2023-01-05T21:14:15.497Z,69.49
2023-01-05T21:16:47.889Z,68.77
2023-01-05T21:19:17.614Z,68.82
2023-01-05T21:21:45.554Z,69.44
2023-01-05T21:24:13.065Z,68.77
2023-01-05T21:26:39.765Z,68.80
2023-01-05T21:29:08.145Z,69.36
2023-01-05T21:31:37.016Z,69.06
2023-01-05T21:34:04.212Z,68.81
2023-01-05T21:36:32.550Z,68.80
2023-01-05T21:39:03.587Z,69.85
2023-01-05T21:41:53.590Z,68.36
2023-01-05T21:44:21.354Z,68.20
2023-01-05T21:46:49.144Z,68.32
2023-01-05T21:49:15.993Z,69.19
2023-01-05T21:52:01.161Z,68.24
2023-01-05T21:54:53.992Z,68.58
2023-01-05T21:57:20.542Z,68.86
2023-01-05T21:59:47.319Z,67.92
2023-01-05T22:02:14.713Z,68.16
2023-01-05T22:04:42.418Z,68.63
2023-01-05T22:07:09.242Z,68.11
2023-01-05T22:09:36.472Z,67.58
2023-01-05T22:12:07.117Z,68.29
2023-01-05T22:14:33.651Z,69.09
2023-01-05T22:17:00.379Z,68.59
2023-01-05T22:19:27.252Z,68.17
2023-01-05T22:21:53.746Z,68.34
2023-01-05T22:24:20.180Z,69.67
2023-01-05T22:26:46.746Z,69.62
2023-01-05T22:29:13.259Z,68.83
2023-01-05T22:31:39.859Z,68.47
2023-01-05T22:34:06.343Z,68.67
2023-01-05T22:36:32.774Z,67.58
2023-01-05T22:39:00.718Z,68.30
2023-01-05T22:41:29.974Z,67.76
2023-01-05T22:43:57.277Z,67.96
2023-01-05T22:46:26.302Z,68.23
2023-01-05T22:48:54.460Z,68.22
2023-01-05T22:51:32.384Z,67.78
2023-01-05T22:53:59.806Z,67.75
2023-01-05T22:56:28.166Z,68.38
2023-01-05T22:58:55.933Z,69.11
2023-01-05T23:01:26.716Z,70.36
2023-01-05T23:03:54.881Z,69.64
2023-01-05T23:06:21.931Z,69.30
2023-01-05T23:08:49.504Z,70.45
2023-01-05T23:11:19.741Z,69.10
2023-01-05T23:13:47.337Z,70.03
2023-01-05T23:16:14.759Z,68.68
2023-01-05T23:18:42.044Z,69.52
2023-01-05T23:21:10.918Z,69.13
2023-01-05T23:23:38.465Z,69.58
2023-01-05T23:26:06.767Z,70.55
2023-01-05T23:28:34.228Z,70.39
2023-01-05T23:31:01.636Z,69.30
2023-01-05T23:33:30.007Z,69.72
2023-01-05T23:35:56.679Z,69.23
2023-01-05T23:38:25.324Z,68.88
2023-01-05T23:40:53.566Z,69.53
2023-01-05T23:43:23.344Z,69.18
2023-01-05T23:45:50.851Z,70.20
2023-01-05T23:48:17.979Z,69.55
2023-01-05T23:50:46.689Z,69.80
2023-01-05T23:53:13.652Z,69.49
2023-01-05T23:55:41.312Z,69.33
2023-01-05T23:58:08.728Z,69.96
